Main page
METAR-TAF:

METAR-TAF

Airports :

Tripoli, Libya

Mitiga International Airport

latitude: 32-54N, longitude: 13-17E, elevation: 11 m

Current weather observation

The report was made 40 minutes ago, at 19:55 UTC
Wind 8 kt from the East
Temperature 23°C
Humidity 73%
Pressure 1019 hPa
Visibility: 8000 m
Clear sky

METAR: HLLM 231955Z 10008KT 8000 SKC 23/18 Q1019

Time: 22:35 (20:35 UTC)

Forecast

The report was made 15 hours and 35 minutes ago, at 05:00 UTC
Forecast valid from 23 at 06 UTC to 24 at 06 UTC
Wind 14 kt from the East
Visibility: 8000 m
Becoming
from 23 at 22 UTC to 23 at 24 UTC
Wind 2 kt from variable directions

TAF: HLLM 230500Z 2306/2406 08014KT 8000 NSC BECMG 2322/2324 VRB02KT

Weather observations and forecasts of more than 4000 airports (METAR and TAF reports).

The available stations are represented by yellow and red dots on the map.

Hover mouse over dot to see the name of the station.

Then click to see weather observations and forecasts.

To change the map : click on the green buttons with a black cross to zoom in, on the green button with a dash to zoom out, or on the green arrows for adjacent maps.


METAR-TAF: